This is the latest recevied weather packets stored in our database for station/object K7AZM. If no packets are shown the sender has not sent any weather packets the latest 10 day(s).
| Time | Temp. | Humidity | Pressure | Rain* | Wind** | Luminosity | Snow |
|---|---|---|---|---|---|---|---|
| 1777460721 | 14.44° C | 29% | 1015.6 hPa | 0 mm | - | - | - |
| 1777457421 | 14.44° C | 29% | 1015.8 hPa | 0 mm | - | - | - |
| 1777456543 | 15° C | 28% | 1015.9 hPa | 0 mm | - | - | - |
| 1777455922 | 15° C | 28% | 1015.8 hPa | 0 mm | - | - | - |
| 1777455021 | 15.56° C | 28% | 1015.8 hPa | 0 mm | - | - | - |
| 1777454122 | 15.56° C | 27% | 1015.8 hPa | 0 mm | - | - | - |
| 1777450521 | 16.11° C | 26% | 1016 hPa | 0 mm | - | - | - |
| 1777449022 | 16.67° C | 27% | 1016 hPa | 0 mm | - | - | - |
| 1777446922 | 17.22° C | 24% | 1016.2 hPa | 0 mm | - | - | - |
| 1777446342 | 17.22° C | 24% | 1016.2 hPa | 0 mm | - | - | - |
| 1777444522 | 17.78° C | 23% | 1016.1 hPa | 0 mm | - | - | - |
| 1777440622 | 20.56° C | 21% | 1015.8 hPa | 0 mm | - | - | - |
| 1777438522 | 20° C | 22% | 1015.5 hPa | 0 mm | - | - | - |
| 1777436142 | 21.11° C | 20% | 1015.4 hPa | 0 mm | - | - | - |
| 1777432822 | 23.89° C | 14% | 1015.3 hPa | 0 mm | - | - | - |
| 1777431922 | 24.44° C | 14% | 1015.3 hPa | 0 mm | - | - | - |
| 1777428343 | 26.11° C | 11% | 1014 hPa | 0 mm | - | - | - |
| 1777426843 | 26.67° C | 11% | 1013.8 hPa | 0 mm | - | - | - |
| 1777426222 | 27.22° C | 12% | 1014.1 hPa | 0 mm | - | - | - |
| 1777425042 | 27.22° C | 12% | 1014 hPa | 0 mm | - | - | - |
| 1777424722 | 27.22° C | 13% | 1014 hPa | 0 mm | - | - | - |
| 1777423522 | 27.22° C | 12% | 1014.2 hPa | 0 mm | - | - | - |
| 1777422924 | 27.22° C | 11% | 1014.2 hPa | 0 mm | - | - | - |
| 1777422625 | 27.22° C | 12% | 1014.2 hPa | 0 mm | - | - | - |
| 1777420523 | 27.78° C | 12% | 1014 hPa | 0 mm | - | - | - |
* Rain latest hour (hover to see other rain measurements)
** Current wind speed in m/s (hover to see current wind gust speed)